Time;durP1;ratioP1;P1;durP2;ratioP2;P2;SDS_P1;SDS_P2;PMS_P1;PMS_P2;Temp;Humidity;BMP_temperature;BMP_pressure;BME280_temperature;BME280_humidity;BME280_pressure;Samples;Min_cycle;Max_cycle;Signal;HPM_P1;HPM_P2
2023/03/19 00:01:52;;;;;;;30.00;21.65;;;10.50;99.90;;;;;;5032780;28;20046;-78
2023/03/19 00:04:17;;;;;;;29.42;22.20;;;10.50;99.90;;;;;;4998366;28;20056;-78
2023/03/19 00:06:43;;;;;;;29.77;22.15;;;10.60;99.90;;;;;;5032825;28;20041;-77
2023/03/19 00:09:09;;;;;;;27.17;20.20;;;10.60;99.90;;;;;;5031339;28;20408;-78
2023/03/19 00:11:35;;;;;;;30.83;22.30;;;10.60;99.90;;;;;;5031279;28;20095;-78
2023/03/19 00:14:00;;;;;;;29.38;22.45;;;10.50;99.90;;;;;;5031021;28;20048;-78
2023/03/19 00:16:26;;;;;;;27.48;21.00;;;10.50;99.90;;;;;;5031447;28;20038;-78
2023/03/19 00:18:52;;;;;;;31.65;21.58;;;10.50;99.90;;;;;;5051238;22;20042;-71
2023/03/19 00:21:18;;;;;;;30.10;23.05;;;10.50;99.90;;;;;;5012765;28;20493;-70
2023/03/19 00:23:43;;;;;;;27.30;21.00;;;10.50;99.90;;;;;;5012453;28;20041;-70
2023/03/19 00:26:09;;;;;;;28.48;22.25;;;10.40;99.90;;;;;;5012909;28;20034;-70
2023/03/19 00:28:36;;;;;;;30.98;22.05;;;10.50;99.90;;;;;;4997864;28;20132;-70
2023/03/19 00:31:13;;;;;;;28.42;21.27;;;10.40;99.90;;;;;;5011424;28;20112;-70
2023/03/19 00:33:38;;;;;;;32.03;23.73;;;10.50;99.90;;;;;;5011038;28;20148;-71
2023/03/19 00:36:05;;;;;;;31.63;21.42;;;10.50;99.90;;;;;;5012446;28;20073;-71
2023/03/19 00:38:33;;;;;;;29.65;21.65;;;10.40;99.90;;;;;;5011155;28;20061;-71
2023/03/19 00:40:58;;;;;;;32.45;22.60;;;10.50;99.90;;;;;;5012473;28;20455;-71
2023/03/19 00:43:24;;;;;;;28.83;21.27;;;10.50;99.90;;;;;;5011053;28;20050;-71
2023/03/19 00:45:50;;;;;;;29.40;22.15;;;10.40;99.90;;;;;;5010971;28;20042;-71
2023/03/19 00:48:16;;;;;;;28.40;21.77;;;10.40;99.90;;;;;;5012613;28;20397;-70
2023/03/19 00:50:42;;;;;;;30.60;22.75;;;10.50;99.90;;;;;;5011438;28;20060;-71
2023/03/19 00:53:07;;;;;;;28.13;22.02;;;10.50;99.90;;;;;;5011123;28;20038;-71
2023/03/19 00:55:33;;;;;;;31.35;22.88;;;10.40;99.90;;;;;;5010702;28;20584;-71
2023/03/19 00:57:59;;;;;;;27.30;21.50;;;10.40;99.90;;;;;;5011250;28;20034;-71
2023/03/19 01:00:25;;;;;;;30.92;22.15;;;10.40;99.90;;;;;;5012462;28;20037;-71
2023/03/19 01:02:51;;;;;;;28.23;21.42;;;10.50;99.90;;;;;;5011035;28;20408;-71
2023/03/19 01:05:16;;;;;;;28.55;22.42;;;10.50;99.90;;;;;;5010774;28;20049;-71
2023/03/19 01:07:42;;;;;;;26.90;20.40;;;10.50;99.90;;;;;;5010969;28;20497;-71
2023/03/19 01:10:09;;;;;;;26.52;20.65;;;10.50;99.90;;;;;;5010640;28;20038;-71
2023/03/19 01:12:35;;;;;;;27.50;21.58;;;10.50;99.90;;;;;;5011005;28;20046;-71
2023/03/19 01:15:01;;;;;;;28.02;21.15;;;10.40;99.90;;;;;;5010746;28;20040;-71
2023/03/19 01:17:26;;;;;;;28.63;21.55;;;10.40;99.90;;;;;;5010811;28;20401;-71
2023/03/19 01:19:52;;;;;;;34.10;22.85;;;10.40;99.90;;;;;;4994210;28;20069;-71
2023/03/19 01:22:17;;;;;;;32.45;21.55;;;10.40;99.90;;;;;;5012015;28;20048;-71
2023/03/19 01:24:43;;;;;;;30.42;21.17;;;10.30;99.90;;;;;;5010408;28;20037;-71
2023/03/19 01:27:09;;;;;;;28.77;20.55;;;10.40;99.90;;;;;;4994378;28;20049;-70
2023/03/19 01:29:35;;;;;;;26.85;20.88;;;10.40;99.90;;;;;;5011751;28;20034;-71
2023/03/19 01:32:00;;;;;;;29.63;20.63;;;10.40;99.90;;;;;;5011867;28;20033;-71
2023/03/19 01:34:26;;;;;;;25.20;19.73;;;10.40;99.90;;;;;;5011564;28;20434;-71
2023/03/19 01:36:52;;;;;;;27.27;20.05;;;10.40;99.90;;;;;;5011804;28;20108;-71
2023/03/19 01:39:17;;;;;;;23.58;18.10;;;10.40;99.90;;;;;;5011566;28;20042;-71
2023/03/19 01:41:43;;;;;;;24.05;17.25;;;10.40;99.90;;;;;;5011933;28;20030;-71
2023/03/19 01:44:30;;;;;;;25.23;17.83;;;10.50;99.90;;;;;;5011461;28;20085;-71
2023/03/19 01:46:57;;;;;;;25.83;18.00;;;10.50;99.90;;;;;;5011957;28;20526;-71
2023/03/19 01:49:24;;;;;;;22.38;17.08;;;10.50;99.90;;;;;;5011656;28;20133;-71
2023/03/19 01:51:51;;;;;;;23.20;17.17;;;10.50;99.90;;;;;;5011660;28;20096;-71
2023/03/19 01:54:21;;;;;;;25.50;19.48;;;10.50;99.90;;;;;;5011439;28;20073;-71
2023/03/19 01:56:55;;;;;;;25.08;18.20;;;10.50;99.90;;;;;;4994243;28;20073;-71
2023/03/19 01:59:31;;;;;;;25.55;18.25;;;10.50;99.90;;;;;;5014409;28;20056;-71
2023/03/19 02:02:02;;;;;;;20.50;16.20;;;10.50;99.90;;;;;;5015324;28;20042;-71
2023/03/19 02:04:30;;;;;;;24.48;18.27;;;10.50;99.90;;;;;;5015063;28;20048;-71
2023/03/19 02:06:57;;;;;;;21.30;16.70;;;10.50;99.90;;;;;;5014245;28;20444;-71
2023/03/19 02:09:24;;;;;;;22.77;16.58;;;10.50;99.90;;;;;;5015051;28;20536;-71
2023/03/19 02:11:51;;;;;;;20.02;16.38;;;10.50;99.90;;;;;;5014159;28;20126;-71
2023/03/19 02:14:17;;;;;;;21.08;15.50;;;10.50;99.90;;;;;;5013486;28;20048;-70
2023/03/19 02:16:43;;;;;;;23.17;16.95;;;10.50;99.90;;;;;;5015000;28;20033;-70
2023/03/19 02:19:12;;;;;;;19.13;15.52;;;10.50;99.90;;;;;;5013877;28;20038;-70
2023/03/19 02:21:38;;;;;;;26.67;16.50;;;10.50;99.90;;;;;;5015113;28;20045;-70
2023/03/19 02:24:16;;;;;;;18.67;14.52;;;10.50;99.90;;;;;;5014726;28;20041;-70
2023/03/19 02:26:43;;;;;;;16.83;13.98;;;10.50;99.90;;;;;;5013717;28;20068;-71
2023/03/19 02:29:08;;;;;;;22.17;15.55;;;10.50;99.90;;;;;;5014665;28;20080;-71
2023/03/19 02:31:34;;;;;;;17.55;14.18;;;10.50;99.90;;;;;;5013867;28;20077;-71
2023/03/19 02:34:02;;;;;;;17.58;12.93;;;10.50;99.90;;;;;;5013500;28;20401;-71
2023/03/19 02:36:36;;;;;;;19.63;13.13;;;10.50;99.90;;;;;;5013527;28;20053;-71
2023/03/19 02:39:06;;;;;;;18.70;14.30;;;10.50;99.90;;;;;;5014658;28;20099;-71
2023/03/19 02:41:33;;;;;;;19.85;13.13;;;10.50;99.90;;;;;;5014656;28;20041;-71
2023/03/19 02:44:02;;;;;;;18.65;13.60;;;10.50;99.90;;;;;;5014217;28;20060;-71
2023/03/19 02:46:27;;;;;;;16.85;13.02;;;10.50;99.90;;;;;;5013176;28;20512;-71
2023/03/19 02:48:53;;;;;;;17.52;14.13;;;10.50;99.90;;;;;;5014476;28;20089;-71
2023/03/19 02:51:18;;;;;;;21.15;12.77;;;10.50;99.90;;;;;;5014324;28;20489;-70
2023/03/19 02:53:44;;;;;;;16.73;11.82;;;10.50;99.90;;;;;;5012918;28;20137;-71
2023/03/19 02:56:10;;;;;;;15.85;11.88;;;10.50;99.90;;;;;;5012884;28;20037;-71
2023/03/19 02:58:36;;;;;;;18.52;13.27;;;10.50;99.90;;;;;;5012879;28;20092;-70
2023/03/19 03:01:01;;;;;;;16.08;11.90;;;10.40;99.90;;;;;;5013981;28;20440;-71
2023/03/19 03:03:27;;;;;;;16.75;11.50;;;10.50;99.90;;;;;;5012615;28;20092;-71
2023/03/19 03:05:52;;;;;;;16.77;12.15;;;10.40;99.90;;;;;;5012652;28;20092;-71
2023/03/19 03:08:19;;;;;;;17.45;12.98;;;10.50;99.90;;;;;;5014074;28;20091;-71
2023/03/19 03:10:45;;;;;;;16.67;11.75;;;10.40;99.90;;;;;;5013791;28;20058;-70
2023/03/19 03:13:10;;;;;;;15.23;12.00;;;10.40;99.90;;;;;;5013765;28;20046;-70
2023/03/19 03:15:36;;;;;;;14.63;11.73;;;10.40;99.90;;;;;;5013690;28;20038;-70
2023/03/19 03:18:02;;;;;;;15.75;13.50;;;10.40;99.90;;;;;;5013626;28;20057;-70
2023/03/19 03:20:28;;;;;;;15.45;11.93;;;10.40;99.90;;;;;;5013917;28;20053;-70
2023/03/19 03:22:53;;;;;;;16.75;12.98;;;10.40;99.90;;;;;;5013832;28;20042;-70
2023/03/19 03:25:19;;;;;;;15.40;12.25;;;10.40;99.90;;;;;;5013161;28;20446;-70
2023/03/19 03:27:45;;;;;;;15.32;12.57;;;10.30;99.90;;;;;;5012384;28;20125;-71
2023/03/19 03:30:12;;;;;;;13.63;11.15;;;10.30;99.90;;;;;;5013795;28;20117;-71
2023/03/19 03:32:38;;;;;;;17.45;12.73;;;10.40;99.90;;;;;;5013430;28;20084;-71
2023/03/19 03:35:05;;;;;;;17.48;13.77;;;10.40;99.90;;;;;;5011977;28;20125;-70
2023/03/19 03:37:31;;;;;;;16.95;12.05;;;10.40;99.90;;;;;;5012311;28;20042;-71
2023/03/19 03:39:57;;;;;;;19.95;14.07;;;10.30;99.90;;;;;;5013310;28;20096;-70
2023/03/19 03:42:22;;;;;;;16.40;12.98;;;10.30;99.90;;;;;;5012171;28;20042;-71
2023/03/19 03:44:48;;;;;;;16.00;13.00;;;10.30;99.90;;;;;;5011783;28;20082;-71
2023/03/19 03:47:15;;;;;;;14.85;12.20;;;10.30;99.90;;;;;;5012154;28;20044;-71
2023/03/19 03:49:41;;;;;;;16.80;12.32;;;10.30;99.90;;;;;;5013317;28;20447;-70
2023/03/19 03:52:07;;;;;;;19.33;14.30;;;10.30;99.90;;;;;;5012253;28;20069;-71
2023/03/19 03:54:33;;;;;;;16.17;12.57;;;10.30;99.90;;;;;;5011496;28;20555;-70
2023/03/19 03:57:00;;;;;;;16.38;12.35;;;10.20;99.90;;;;;;5012167;28;20096;-70
2023/03/19 03:59:25;;;;;;;19.38;13.45;;;10.20;99.90;;;;;;5011795;28;20045;-71
2023/03/19 04:01:51;;;;;;;15.10;11.55;;;10.30;99.90;;;;;;5011839;28;20038;-71
2023/03/19 04:04:17;;;;;;;15.93;12.98;;;10.30;99.90;;;;;;5012783;28;20052;-71
2023/03/19 04:06:43;;;;;;;14.68;11.82;;;10.30;99.90;;;;;;5011639;28;20050;-71
2023/03/19 04:09:08;;;;;;;17.02;12.85;;;10.20;99.90;;;;;;5012817;28;20121;-71
2023/03/19 04:11:35;;;;;;;15.57;12.52;;;10.30;99.90;;;;;;5012954;28;20168;-71
2023/03/19 04:14:02;;;;;;;20.83;14.05;;;10.30;99.90;;;;;;5012712;28;20116;-71
2023/03/19 04:16:28;;;;;;;18.88;14.43;;;10.20;99.90;;;;;;5012927;28;20157;-71
2023/03/19 04:18:53;;;;;;;21.58;14.05;;;10.30;99.90;;;;;;4995099;28;20081;-71
2023/03/19 04:21:20;;;;;;;20.17;14.77;;;10.30;99.90;;;;;;5012216;28;20038;-71
2023/03/19 04:23:45;;;;;;;18.35;15.65;;;10.20;99.90;;;;;;5011240;28;20165;-71
2023/03/19 04:26:12;;;;;;;21.95;14.73;;;10.30;99.90;;;;;;5012860;28;20130;-72
2023/03/19 04:28:38;;;;;;;18.08;14.70;;;10.20;99.90;;;;;;5011540;28;20124;-71
2023/03/19 04:31:05;;;;;;;16.63;13.63;;;10.20;99.90;;;;;;5011781;28;20457;-71
2023/03/19 04:33:32;;;;;;;16.55;12.88;;;10.20;99.90;;;;;;5011078;28;20121;-71
2023/03/19 04:35:58;;;;;;;18.27;14.35;;;10.20;99.90;;;;;;5012412;28;20038;-71
2023/03/19 04:38:27;;;;;;;18.20;13.90;;;10.10;99.90;;;;;;5011075;28;20046;-71
2023/03/19 04:40:56;;;;;;;19.80;14.48;;;10.10;99.90;;;;;;5011440;28;20038;-71
2023/03/19 04:43:23;;;;;;;16.85;12.52;;;10.10;99.90;;;;;;5011253;28;20095;-71
2023/03/19 04:45:49;;;;;;;19.20;13.90;;;10.10;99.90;;;;;;5010954;28;20053;-71
2023/03/19 04:48:14;;;;;;;17.48;12.57;;;10.20;99.90;;;;;;5011039;28;20057;-71
2023/03/19 04:50:40;;;;;;;15.63;12.02;;;10.20;99.90;;;;;;5012396;28;20038;-71
2023/03/19 04:53:06;;;;;;;18.25;12.90;;;10.10;99.90;;;;;;5010869;28;20050;-70
2023/03/19 04:55:33;;;;;;;15.05;11.63;;;10.20;99.90;;;;;;5010733;28;20493;-71
2023/03/19 04:57:59;;;;;;;15.25;12.13;;;10.20;99.90;;;;;;5012244;28;20041;-71
2023/03/19 05:00:24;;;;;;;16.25;12.57;;;10.10;99.90;;;;;;5010941;28;20038;-71
2023/03/19 05:02:50;;;;;;;13.20;10.95;;;10.10;99.90;;;;;;5012117;28;20386;-71
2023/03/19 05:05:16;;;;;;;13.90;11.65;;;10.20;99.90;;;;;;5011760;28;20037;-70
2023/03/19 05:07:42;;;;;;;13.20;11.38;;;10.10;99.90;;;;;;5012020;28;20441;-70
2023/03/19 05:10:09;;;;;;;15.00;11.95;;;10.10;99.90;;;;;;5011858;28;20092;-70
2023/03/19 05:12:35;;;;;;;16.75;12.27;;;10.10;99.90;;;;;;5010594;28;20096;-70
2023/03/19 05:15:04;;;;;;;13.82;11.07;;;10.00;99.90;;;;;;5011760;28;20073;-70
2023/03/19 05:17:30;;;;;;;13.43;10.20;;;10.10;99.90;;;;;;5011871;28;20405;-71
2023/03/19 05:19:55;;;;;;;14.20;11.07;;;9.90;99.90;;;;;;5011687;28;20034;-71
2023/03/19 05:22:22;;;;;;;12.40;9.77;;;9.90;99.90;;;;;;5010891;28;20448;-71
2023/03/19 05:24:48;;;;;;;11.45;9.25;;;9.80;99.90;;;;;;5011782;28;20088;-71
2023/03/19 05:27:14;;;;;;;11.73;10.23;;;9.80;99.90;;;;;;5010605;28;20050;-71
2023/03/19 05:29:39;;;;;;;15.48;9.77;;;9.80;99.90;;;;;;5011797;28;20046;-71
2023/03/19 05:32:05;;;;;;;12.45;9.85;;;9.70;99.90;;;;;;5011283;28;20038;-71
2023/03/19 05:34:32;;;;;;;14.57;9.68;;;9.70;99.90;;;;;;5014109;28;20529;-71
2023/03/19 05:36:57;;;;;;;14.50;10.32;;;9.60;99.90;;;;;;5015934;28;20062;-71
2023/03/19 05:39:23;;;;;;;14.05;8.98;;;9.70;99.90;;;;;;5015786;28;20069;-71
2023/03/19 05:41:48;;;;;;;13.60;9.57;;;9.60;99.90;;;;;;5014353;28;20048;-71
2023/03/19 05:44:14;;;;;;;11.60;9.18;;;9.50;99.90;;;;;;5015277;28;20049;-71
2023/03/19 05:46:40;;;;;;;12.45;9.20;;;9.50;99.90;;;;;;5014515;28;20038;-71
2023/03/19 05:49:06;;;;;;;12.00;9.57;;;9.50;99.90;;;;;;5014273;28;20099;-71
2023/03/19 05:51:31;;;;;;;12.60;9.55;;;9.50;99.90;;;;;;5015695;28;20497;-71
2023/03/19 05:53:57;;;;;;;12.10;9.35;;;9.40;99.90;;;;;;5015269;28;20089;-71
2023/03/19 05:56:22;;;;;;;10.98;9.23;;;9.40;99.90;;;;;;5014356;28;20050;-71
2023/03/19 05:58:48;;;;;;;12.55;8.73;;;9.30;99.90;;;;;;5015365;28;20049;-71
2023/03/19 06:01:15;;;;;;;13.43;9.45;;;9.30;99.90;;;;;;5015388;28;20038;-71
2023/03/19 06:03:40;;;;;;;11.30;8.88;;;9.30;99.90;;;;;;5015049;28;20556;-70
2023/03/19 06:06:06;;;;;;;11.65;8.90;;;9.30;99.90;;;;;;5015064;28;20041;-71
2023/03/19 06:08:32;;;;;;;12.48;8.68;;;9.20;99.90;;;;;;5015258;28;20085;-70
2023/03/19 06:10:57;;;;;;;11.50;9.63;;;9.20;99.90;;;;;;5013878;28;20459;-70
2023/03/19 06:13:23;;;;;;;11.18;8.98;;;9.20;99.90;;;;;;5014776;28;20048;-70
2023/03/19 06:15:48;;;;;;;12.98;9.70;;;9.10;99.90;;;;;;5015017;28;20033;-70
2023/03/19 06:18:15;;;;;;;12.32;9.38;;;9.10;99.90;;;;;;5041011;22;20045;-79
2023/03/19 06:20:41;;;;;;;13.70;9.40;;;9.00;99.90;;;;;;5036312;28;20564;-78
2023/03/19 06:23:06;;;;;;;11.88;8.82;;;9.00;99.90;;;;;;5036790;28;20235;-78
2023/03/19 06:25:32;;;;;;;11.88;9.35;;;9.00;99.90;;;;;;5036742;28;20041;-78
2023/03/19 06:27:57;;;;;;;12.68;9.38;;;9.10;99.90;;;;;;5036445;28;20504;-78
2023/03/19 06:30:23;;;;;;;10.68;8.15;;;9.20;99.90;;;;;;5036513;28;20049;-78
2023/03/19 06:32:49;;;;;;;13.93;9.63;;;9.20;99.90;;;;;;5036337;28;20040;-78
2023/03/19 06:35:14;;;;;;;12.73;9.30;;;9.20;99.90;;;;;;5036315;28;20140;-78
2023/03/19 06:37:40;;;;;;;14.82;9.38;;;9.30;99.90;;;;;;5036532;28;20041;-79
2023/03/19 06:40:06;;;;;;;12.95;8.82;;;9.40;99.90;;;;;;5036175;28;20041;-78
2023/03/19 06:42:32;;;;;;;11.35;7.95;;;9.50;99.90;;;;;;5036379;28;20040;-78
2023/03/19 06:44:57;;;;;;;13.02;9.57;;;9.60;99.90;;;;;;5035494;28;20051;-79
2023/03/19 06:47:23;;;;;;;10.45;8.27;;;9.80;99.90;;;;;;5036214;28;20041;-78
2023/03/19 06:49:48;;;;;;;12.77;9.55;;;10.00;99.90;;;;;;5019715;28;20036;-79
2023/03/19 06:52:14;;;;;;;12.38;9.40;;;10.20;99.90;;;;;;5054151;28;20041;-78
2023/03/19 06:54:40;;;;;;;13.25;9.18;;;10.30;99.90;;;;;;5054073;28;20105;-78
2023/03/19 06:57:05;;;;;;;12.15;9.43;;;10.50;99.90;;;;;;5036467;28;20133;-79
2023/03/19 06:59:31;;;;;;;13.63;9.70;;;10.70;99.90;;;;;;5053989;28;20114;-79
2023/03/19 07:01:56;;;;;;;8.85;7.95;;;10.80;99.90;;;;;;5053886;28;20590;-78
2023/03/19 07:04:22;;;;;;;8.05;7.22;;;10.80;99.90;;;;;;5035749;28;20045;-79
2023/03/19 07:06:47;;;;;;;8.25;6.93;;;10.70;99.90;;;;;;5054015;28;20048;-79
2023/03/19 07:09:13;;;;;;;10.05;7.40;;;10.60;99.90;;;;;;5035857;28;20048;-78
2023/03/19 07:11:38;;;;;;;10.27;7.53;;;10.60;99.90;;;;;;5053723;28;20119;-79
2023/03/19 07:14:04;;;;;;;9.80;7.43;;;10.60;99.90;;;;;;5019089;28;20037;-79
2023/03/19 07:16:30;;;;;;;10.63;6.85;;;10.50;99.90;;;;;;5035661;28;20123;-79
2023/03/19 07:18:55;;;;;;;9.05;7.68;;;10.50;99.90;;;;;;5035530;28;20076;-79
2023/03/19 07:21:21;;;;;;;9.35;7.00;;;10.50;99.90;;;;;;5035692;28;20041;-79
2023/03/19 07:23:47;;;;;;;11.75;7.40;;;10.80;99.90;;;;;;5035653;28;20043;-79
2023/03/19 07:26:12;;;;;;;8.45;7.18;;;10.90;99.90;;;;;;5018146;28;20052;-79
2023/03/19 07:28:38;;;;;;;11.00;8.05;;;11.10;99.90;;;;;;5034728;28;20045;-79
2023/03/19 07:31:04;;;;;;;8.90;7.90;;;11.40;99.90;;;;;;5035404;28;20041;-80
2023/03/19 07:33:30;;;;;;;9.80;7.78;;;11.70;99.90;;;;;;5035264;28;20458;-80
2023/03/19 07:35:55;;;;;;;10.38;7.70;;;11.90;99.90;;;;;;5018450;28;20033;-79
2023/03/19 07:38:21;;;;;;;9.48;8.48;;;12.30;99.90;;;;;;5033647;28;20083;-79
2023/03/19 07:40:46;;;;;;;11.10;7.95;;;12.40;99.90;;;;;;5034390;28;20067;-79
2023/03/19 07:43:12;;;;;;;10.02;8.05;;;12.70;99.90;;;;;;5035467;28;20044;-80
2023/03/19 07:45:37;;;;;;;10.10;8.93;;;12.80;99.90;;;;;;5035288;28;20045;-79
2023/03/19 07:48:03;;;;;;;14.57;9.00;;;13.00;99.90;;;;;;5035408;28;20041;-79
2023/03/19 07:50:30;;;;;;;13.75;9.43;;;13.20;99.90;;;;;;5035188;28;20041;-79
2023/03/19 07:52:56;;;;;;;12.57;9.48;;;13.30;99.90;;;;;;5035650;28;20041;-80
2023/03/19 07:55:22;;;;;;;13.02;9.02;;;13.40;99.90;;;;;;5053632;28;20041;-78
2023/03/19 07:57:47;;;;;;;13.00;9.07;;;13.50;99.90;;;;;;5035004;28;20036;-79
2023/03/19 08:00:14;;;;;;;11.40;8.82;;;13.50;99.90;;;;;;5034946;28;20107;-79
2023/03/19 08:02:41;;;;;;;13.13;10.48;;;13.60;99.90;;;;;;5035171;28;20033;-79
2023/03/19 08:05:08;;;;;;;11.07;8.80;;;13.60;99.90;;;;;;5035202;28;20045;-79
2023/03/19 08:07:34;;;;;;;12.07;9.15;;;13.70;99.90;;;;;;5035428;28;20045;-79
2023/03/19 08:10:00;;;;;;;11.88;9.75;;;13.70;99.90;;;;;;5034734;28;20033;-79
2023/03/19 08:12:26;;;;;;;11.48;9.55;;;13.50;99.90;;;;;;5019099;28;20041;-79
2023/03/19 08:14:51;;;;;;;12.95;9.63;;;13.50;99.90;;;;;;5035756;28;20068;-79
2023/03/19 08:17:17;;;;;;;13.43;10.60;;;13.50;99.90;;;;;;5035130;28;20467;-78
2023/03/19 08:19:43;;;;;;;14.10;10.48;;;13.70;99.90;;;;;;5034051;28;20040;-79
2023/03/19 08:22:08;;;;;;;12.80;9.75;;;13.90;99.90;;;;;;5034454;28;20418;-78
2023/03/19 08:24:34;;;;;;;14.38;10.25;;;14.10;99.90;;;;;;5034144;28;20063;-78
2023/03/19 08:26:59;;;;;;;12.98;9.30;;;14.10;99.90;;;;;;5034342;28;20052;-78
2023/03/19 08:29:26;;;;;;;12.63;9.90;;;14.00;99.90;;;;;;5017578;28;20120;-78
2023/03/19 08:31:55;;;;;;;13.90;9.93;;;13.90;99.90;;;;;;5034575;28;20044;-78
2023/03/19 08:34:22;;;;;;;12.50;9.73;;;13.60;99.90;;;;;;5034462;28;20106;-80
2023/03/19 08:36:47;;;;;;;10.75;9.20;;;13.30;99.90;;;;;;5031226;28;20091;-79
2023/03/19 08:39:13;;;;;;;13.48;10.93;;;13.10;99.90;;;;;;5016647;28;20037;-79
2023/03/19 08:41:39;;;;;;;14.98;10.70;;;12.80;99.90;;;;;;5034482;28;20064;-79
2023/03/19 08:44:05;;;;;;;12.38;9.65;;;13.10;99.90;;;;;;5052090;28;20501;-79
2023/03/19 08:46:31;;;;;;;14.35;10.50;;;13.40;99.90;;;;;;5034352;28;20490;-77
2023/03/19 08:48:56;;;;;;;11.55;8.60;;;13.70;99.90;;;;;;5034344;28;20039;-78
2023/03/19 08:51:24;;;;;;;14.70;10.50;;;14.00;99.90;;;;;;5034067;28;20128;-79
2023/03/19 08:53:50;;;;;;;13.27;10.40;;;14.20;99.90;;;;;;5017490;28;20123;-80
2023/03/19 08:56:16;;;;;;;11.07;9.38;;;14.60;99.90;;;;;;5035187;28;20565;-78
2023/03/19 08:58:41;;;;;;;11.00;8.48;;;14.80;99.90;;;;;;5034024;28;20389;-78
2023/03/19 09:01:11;;;;;;;9.00;7.25;;;15.00;99.90;;;;;;5032256;28;20056;-77
2023/03/19 09:03:37;;;;;;;11.18;7.43;;;15.00;99.90;;;;;;5038488;28;20044;-76
2023/03/19 09:06:05;;;;;;;6.53;5.25;;;14.70;99.90;;;;;;5019905;28;20519;-77
2023/03/19 09:08:32;;;;;;;8.02;6.07;;;14.40;99.90;;;;;;5019422;28;20037;-77
2023/03/19 09:10:58;;;;;;;11.13;6.88;;;14.20;99.90;;;;;;5038492;28;20051;-78
2023/03/19 09:13:24;;;;;;;9.63;7.88;;;13.80;99.90;;;;;;5042212;28;20036;-77
2023/03/19 09:15:50;;;;;;;10.02;7.10;;;13.50;99.90;;;;;;5049904;28;20116;-77
2023/03/19 09:18:16;;;;;;;8.95;7.20;;;13.30;99.90;;;;;;5050969;28;20037;-78
2023/03/19 09:20:42;;;;;;;11.18;7.93;;;13.10;99.90;;;;;;5033760;28;20036;-77
2023/03/19 09:23:08;;;;;;;12.93;8.35;;;13.00;99.90;;;;;;5017147;28;20047;-77
2023/03/19 09:25:34;;;;;;;10.32;7.50;;;12.90;99.90;;;;;;5033205;28;20043;-76
2023/03/19 09:28:00;;;;;;;9.25;8.25;;;12.80;99.90;;;;;;5033327;28;20036;-77
2023/03/19 09:30:26;;;;;;;12.65;8.25;;;12.90;99.90;;;;;;5027754;28;20048;-76
2023/03/19 09:32:51;;;;;;;11.88;8.70;;;12.90;99.90;;;;;;5019916;28;20044;-77
2023/03/19 09:35:17;;;;;;;10.77;8.52;;;13.00;99.90;;;;;;5017221;28;20435;-78
2023/03/19 09:37:42;;;;;;;13.27;8.38;;;13.00;99.90;;;;;;5033698;28;20078;-77
2023/03/19 09:40:26;;;;;;;10.88;8.25;;;13.00;99.90;;;;;;5033567;28;20520;-77
2023/03/19 09:43:26;;;;;;;12.93;8.82;;;13.20;99.90;;;;;;5051982;28;20041;-76
2023/03/19 09:45:52;;;;;;;11.75;8.18;;;13.20;99.90;;;;;;5056251;28;20045;-75
2023/03/19 09:48:31;;;;;;;9.77;7.97;;;13.20;99.90;;;;;;5055684;28;20473;-76
2023/03/19 09:50:59;;;;;;;10.35;7.60;;;13.20;99.90;;;;;;5036221;28;20488;-75
2023/03/19 09:54:03;;;;;;;8.15;6.63;;;13.20;99.90;;;;;;5050034;28;20048;-76
2023/03/19 09:56:31;;;;;;;8.85;6.57;;;13.30;99.90;;;;;;4970156;28;20054;-76
2023/03/19 09:58:57;;;;;;;10.60;7.82;;;13.50;99.90;;;;;;5019815;28;20080;-75
2023/03/19 10:01:32;;;;;;;8.55;7.30;;;13.50;99.90;;;;;;5033091;28;20064;-77
2023/03/19 10:04:06;;;;;;;9.05;6.30;;;13.50;99.90;;;;;;5032245;28;20365;-76
2023/03/19 10:06:39;;;;;;;9.27;6.80;;;13.60;99.90;;;;;;5033216;28;20075;-76
2023/03/19 10:09:10;;;;;;;9.13;6.70;;;13.70;99.90;;;;;;5032851;28;20048;-78
2023/03/19 10:11:58;;;;;;;12.32;7.38;;;13.80;99.90;;;;;;5033143;28;20446;-78
2023/03/19 10:14:26;;;;;;;8.70;7.15;;;13.70;99.90;;;;;;5020251;28;20546;-77
2023/03/19 10:16:56;;;;;;;8.90;7.63;;;13.60;99.90;;;;;;5050822;28;20445;-77
2023/03/19 10:20:02;;;;;;;10.23;6.95;;;13.70;99.90;;;;;;5021980;28;20497;-77
2023/03/19 10:22:46;;;;;;;10.57;7.18;;;13.70;99.90;;;;;;4919334;29;20035;-78
2023/03/19 10:25:21;;;;;;;8.68;6.50;;;13.60;99.90;;;;;;5005133;28;20057;-77
2023/03/19 10:27:54;;;;;;;11.18;7.75;;;13.60;99.90;;;;;;5046030;28;20044;-78
2023/03/19 10:30:20;;;;;;;11.48;8.10;;;13.60;99.90;;;;;;5022316;28;20522;-77
2023/03/19 10:32:55;;;;;;;10.23;7.38;;;13.60;99.90;;;;;;5034911;28;20079;-78
2023/03/19 10:35:36;;;;;;;10.85;7.82;;;13.60;99.90;;;;;;5016703;28;20056;-79
2023/03/19 10:38:18;;;;;;;11.02;8.13;;;13.50;99.90;;;;;;5000629;28;20132;-76
2023/03/19 10:40:58;;;;;;;10.20;7.53;;;13.50;99.90;;;;;;5034476;28;20048;-77
2023/03/19 10:43:26;;;;;;;8.93;7.25;;;13.40;99.90;;;;;;5034378;28;20033;-77
2023/03/19 10:45:53;;;;;;;11.25;7.57;;;13.40;99.90;;;;;;5016217;28;20528;-77
2023/03/19 10:48:18;;;;;;;9.75;7.55;;;13.50;99.90;;;;;;5016459;28;20518;-78
2023/03/19 10:51:04;;;;;;;9.00;7.75;;;13.50;99.90;;;;;;5016303;28;20133;-76
2023/03/19 10:53:34;;;;;;;11.68;7.82;;;13.50;99.90;;;;;;5032579;28;20049;-78
2023/03/19 10:56:06;;;;;;;11.45;8.15;;;13.50;99.90;;;;;;5016327;28;20083;-78
2023/03/19 10:58:36;;;;;;;9.60;6.90;;;13.50;99.90;;;;;;5016255;28;20052;-78
2023/03/19 11:01:11;;;;;;;9.45;7.70;;;13.50;99.90;;;;;;5009638;28;20056;-78
2023/03/19 11:03:39;;;;;;;11.85;8.40;;;13.60;99.90;;;;;;5014850;28;20392;-78
2023/03/19 11:06:18;;;;;;;9.52;7.15;;;13.50;99.90;;;;;;5055269;28;20045;-78
2023/03/19 11:08:57;;;;;;;11.25;7.55;;;13.70;99.90;;;;;;5053985;28;20045;-78
2023/03/19 11:11:35;;;;;;;9.38;8.05;;;13.80;99.90;;;;;;5035755;28;20044;-77
2023/03/19 11:14:13;;;;;;;10.90;7.57;;;13.70;99.90;;;;;;5035295;28;20098;-77
2023/03/19 11:16:52;;;;;;;11.57;8.13;;;13.70;99.90;;;;;;5036231;28;20110;-77
2023/03/19 11:19:22;;;;;;;9.93;8.13;;;13.80;99.90;;;;;;5035415;28;20036;-76
2023/03/19 11:21:59;;;;;;;9.45;7.72;;;13.80;99.90;;;;;;5038314;28;20425;-77
2023/03/19 11:24:26;;;;;;;9.30;7.55;;;13.70;99.90;;;;;;5038496;28;20089;-78
2023/03/19 11:26:55;;;;;;;10.85;7.53;;;13.80;99.90;;;;;;5038891;28;20036;-78
2023/03/19 11:29:22;;;;;;;8.38;7.10;;;13.90;99.90;;;;;;5055535;28;20037;-78
2023/03/19 11:32:22;;;;;;;12.43;7.90;;;13.80;99.90;;;;;;5055266;28;20049;-78
2023/03/19 11:35:09;;;;;;;12.02;8.60;;;13.80;99.90;;;;;;5054994;28;20037;-79
2023/03/19 11:37:55;;;;;;;12.93;8.70;;;13.70;99.90;;;;;;5043389;28;20040;-78
2023/03/19 11:40:48;;;;;;;11.55;8.85;;;13.80;99.90;;;;;;5035102;28;20037;-78
2023/03/19 11:43:37;;;;;;;12.85;9.63;;;13.80;99.90;;;;;;5026459;28;20037;-78
2023/03/19 11:46:27;;;;;;;14.07;9.50;;;13.80;99.90;;;;;;5054595;28;20048;-78
2023/03/19 11:49:30;;;;;;;12.25;9.80;;;13.80;99.90;;;;;;5055236;28;20404;-78
2023/03/19 11:52:12;;;;;;;12.80;9.68;;;13.70;99.90;;;;;;5038824;28;20039;-77
2023/03/19 11:54:56;;;;;;;12.88;9.25;;;13.70;99.90;;;;;;5054528;28;20545;-79
2023/03/19 11:57:56;;;;;;;13.60;10.38;;;13.70;99.90;;;;;;5055205;28;20045;-79
2023/03/19 12:00:42;;;;;;;12.98;10.20;;;13.60;99.90;;;;;;5054946;28;20406;-76
2023/03/19 12:03:42;;;;;;;12.75;8.80;;;13.70;99.90;;;;;;5054766;28;20040;-78
2023/03/19 12:06:49;;;;;;;11.55;9.20;;;13.70;99.90;;;;;;5033601;28;20056;-79
2023/03/19 12:10:09;;;;;;;11.82;9.00;;;13.60;99.90;;;;;;5053522;28;20087;-78
2023/03/19 12:12:57;;;;;;;11.18;9.10;;;13.70;99.90;;;;;;4993103;28;20479;-76
2023/03/19 12:15:36;;;;;;;12.48;9.93;;;13.60;99.90;;;;;;5047326;28;20136;-77
2023/03/19 12:18:43;;;;;;;13.18;10.55;;;13.70;99.90;;;;;;5008462;28;20123;-78
2023/03/19 12:21:35;;;;;;;15.65;9.45;;;13.80;99.90;;;;;;5055416;22;20045;-72
2023/03/19 12:24:10;;;;;;;11.55;9.73;;;13.90;99.90;;;;;;5030806;28;20511;-71
2023/03/19 12:27:10;;;;;;;15.43;10.30;;;13.90;99.90;;;;;;5049559;28;20455;-72
2023/03/19 12:30:11;;;;;;;12.80;9.80;;;13.90;99.90;;;;;;5036762;28;20044;-72
2023/03/19 12:32:59;;;;;;;11.57;9.63;;;14.00;99.90;;;;;;5027179;28;20076;-73
2023/03/19 12:35:35;;;;;;;12.77;9.82;;;14.00;99.90;;;;;;5053956;28;20045;-72
2023/03/19 12:38:25;;;;;;;14.05;10.50;;;14.00;99.90;;;;;;5071839;28;20037;-71
2023/03/19 12:40:57;;;;;;;14.48;10.63;;;14.00;99.90;;;;;;5037150;28;20040;-71
2023/03/19 12:43:50;;;;;;;15.50;10.43;;;14.10;99.90;;;;;;5071513;28;20037;-72
2023/03/19 12:46:20;;;;;;;;;;;14.10;99.90;;;;;;5054645;28;20515;-72
2023/03/19 12:48:57;;;;;;;13.40;10.27;;;13.90;99.90;;;;;;5053994;28;19939;-73